Coventry, Connecticut
Current Conditions -  °F | °C
As of 3:52 PM on Thursday 20 Nov 2014 (Local Time) from KIJD Reporting Station
Clear Clear  
Wind Chill: 39°   Ceiling: Unl
Heat Index: 44°   Visibility: 10mi
Dew Point: 19°   Wind: 10mph
Humidity: 37%   Direction: 240°WSW
Pressure: 29.79"   Gusts: 21mph
Location:  41.77°N, 72.3°W
Report Text: KIJD 202052Z AUTO 24009G18KT 10SM CLR 07/M07 A2979 RMK AO2 SLP089 T00671072 55006
Loading
Personal Weather Stations






























Interactive Weather Map New forecast layout! Learn more

10-Day Weather Forecast

Advertisements
Track Severe Weather on mobile